LICCLGKR

Guest
Details From LICC - Catania Fontanarossa
To LGKR - IOANNIS KAPODISTRIAS INTL
Flight Number -
Tags generated
Created
Modified
Stats Distance 272 nm / 503 km
Max Altitude 35,000 ft / 10,668 m
Waypoints 6
Social Downloads 0
Likes 0
Share VATSIM

Download

Looking for another format? Having issues loading an existing format? Contact us
Advertisement - Login to hide

Notes

Basic altitude profile: - Ascent Rate: 2500ft/min - Ascent Speed: 250kts - Cruise Altitude: 35000ft - Cruise Speed: 420kts - Descent Rate: 1500ft/min - Descent Speed: 250kts Options: - Use NATs: yes - Use PACOTS: yes - Use low airways: yes - Use high airways: yes

Route

LICC CDC L869 GEMVI LGKR

ID Type Via Altitude (ft/m) Position (lat/lon) Dist (leg/tot) Name
O LICC APT - 0 / 0 37.46680 / 15.06650 - / 0 nm Catania Fontanarossa
CDC VOR - 35,000 / 10,668 38.75590 / 16.36910 98 / 98 nm CARAFFA
VADES FIX L869 (AWY-HI) 32,900 / 10,028 38.88420 / 16.74830 19 / 118 nm
CRN VOR L869 (AWY-HI) 29,200 / 8,900 38.99610 / 17.08310 17 / 135 nm CROTONE
GEMVI FIX L869 (AWY-HI) 21,800 / 6,645 39.11280 / 17.80530 34 / 169 nm
O LGKR APT - 0 / 0 39.60230 / 19.91200 102 / 271 nm IOANNIS KAPODISTRIAS INTL

Altitude Profile

Advertisement - Login to hide

Weather


0- 5 10 15 20 25 30 35+ Temperature / °C

Clouds and Precipitation
Forecast for 2019-11-14 12:00 UTC. Updated 4 hours ago

Ground ~20,000 ft ~40,000 ft Winds

LICC

Details ICAO LICC (CTA)
Name Catania Fontanarossa
Region Italy
Timezone Europe/Rome (UTC+1.0)
Stats Elevation 39 ft / 12 m (AMSL)
Location 37.466800° 15.066500°
Runways 1
Magnetic Variation 3.400° E

METAR

LICC 141320Z 22005KT 9999 FEW030 SCT070 19/12 Q1008

Decode

TAF

TAF LICC 141100Z 1412/1512 23010KT 9999 SCT030 TEMPO 1412/1415 RA BECMG 1500/1502 22015G25KT

Decode

Departure Runways

ID Width Length Bearing (true/mag) Surface Threshold Overrun Markings Lighting
08 148 ft / 45 m 8,000 ft / 2,438 m 83.94° / 80.54° ASPHALT 0 ft / 0 m 0 ft / 0 m APP CENTERLINE EDGE THRESHOLD MALSF
26 148 ft / 45 m 8,000 ft / 2,438 m 263.96° / 260.56° ASPHALT 0 ft / 0 m 0 ft / 0 m APP CENTERLINE EDGE THRESHOLD MALSF

LGKR

Details ICAO LGKR (CFU)
Name IOANNIS KAPODISTRIAS INTL
Region Greece
Timezone Europe/Athens (UTC+2.0)
Stats Elevation 0 ft / 0 m (AMSL)
Location 39.602300° 19.912000°
Runways 1
Magnetic Variation 4.289° E

METAR

LGKR 141320Z 18003KT 9999 SCT018TCU BKN030 BKN080 19/15 Q1009 NOSIG

Decode

TAF

TAF LGKR 141100Z 1412/1512 VRB03KT 9999 FEW012 SCT020 TEMPO 1412/1512 5000 RA FEW018TCU BKN025 BKN070 PROB40 TEMPO 1412/1512 3000 TSRA SCT010 FEW018CB BKN020 BKN070 BECMG 1421/1423 14015KT

Decode

Destination Runways

ID Width Length Bearing (true/mag) Surface Threshold Overrun Markings Lighting
17 148 ft / 45 m 7,604 ft / 2,318 m 168.78° / 164.49° ASPHALT 1,342 ft / 409 m 0 ft / 0 m PREC-APP EDGE THRESHOLD ALSF-I
35 148 ft / 45 m 7,604 ft / 2,318 m 348.79° / 344.50° ASPHALT 0 ft / 0 m 0 ft / 0 m PREC-APP EDGE THRESHOLD SALS REIL-OMNI

Popular Alternatives